Time;durP1;ratioP1;P1;durP2;ratioP2;P2;SDS_P1;SDS_P2;PMS_P1;PMS_P2;Temp;Humidity;BMP_temperature;BMP_pressure;BME280_temperature;BME280_humidity;BME280_pressure;Samples;Min_cycle;Max_cycle;Signal;HPM_P1;HPM_P2
2024/01/05 00:01:49;;;;;;;7.82;5.65;;;3.10;67.30;;;;;;5052363;28;20039;-75
2024/01/05 00:04:15;;;;;;;11.02;6.82;;;3.00;66.30;;;;;;5051249;28;20041;-75
2024/01/05 00:06:41;;;;;;;8.88;3.83;;;3.00;66.40;;;;;;5051200;28;20052;-75
2024/01/05 00:09:07;;;;;;;7.55;5.80;;;3.00;66.40;;;;;;5052480;28;20041;-75
2024/01/05 00:11:34;;;;;;;13.70;7.07;;;3.00;66.60;;;;;;5050158;28;20057;-75
2024/01/05 00:14:00;;;;;;;27.42;8.85;;;3.00;66.60;;;;;;5052706;28;20485;-75
2024/01/05 00:16:27;;;;;;;12.00;7.63;;;3.10;66.60;;;;;;5051261;28;20570;-75
2024/01/05 00:18:53;;;;;;;;;;;3.10;66.70;;;;;;5052882;28;20074;-75
2024/01/05 00:21:37;;;;;;;9.93;5.63;;;3.10;66.70;;;;;;5033825;28;19920;-75
2024/01/05 00:24:04;;;;;;;7.28;3.78;;;3.00;66.50;;;;;;5052575;28;20029;-75
2024/01/05 00:26:29;;;;;;;;;;;2.90;66.40;;;;;;5051532;28;20482;-75
2024/01/05 00:28:55;;;;;;;11.32;6.25;;;2.90;66.50;;;;;;5052149;28;19930;-75
2024/01/05 00:31:21;;;;;;;10.23;5.70;;;2.80;67.00;;;;;;5050358;28;20037;-75
2024/01/05 00:33:47;;;;;;;5.35;4.15;;;2.80;67.30;;;;;;5052424;28;20029;-75
2024/01/05 00:36:14;;;;;;;15.20;6.10;;;2.80;67.30;;;;;;5050762;28;20386;-74
2024/01/05 00:41:25;;;;;;;5.47;3.25;;;2.80;67.40;;;;;;5051542;28;20076;-75
2024/01/05 00:43:51;;;;;;;8.10;4.22;;;2.80;67.60;;;;;;5051087;28;20083;-75
2024/01/05 00:46:17;;;;;;;5.30;2.65;;;2.80;67.70;;;;;;5050720;28;20043;-75
2024/01/05 00:48:43;;;;;;;3.15;1.73;;;2.70;67.90;;;;;;5034267;28;20039;-75
2024/01/05 00:51:09;;;;;;;2.80;2.40;;;2.80;68.30;;;;;;5033331;28;20045;-75
2024/01/05 00:53:35;;;;;;;4.15;2.33;;;2.70;68.40;;;;;;5054572;28;20433;-74
2024/01/05 00:56:01;;;;;;;1.77;1.13;;;2.70;68.30;;;;;;5055968;28;20045;-75
2024/01/05 00:58:27;;;;;;;4.57;2.38;;;2.70;68.30;;;;;;5056140;28;20044;-75
2024/01/05 01:00:53;;;;;;;3.85;2.03;;;2.70;68.60;;;;;;5037551;28;20051;-74
2024/01/05 01:03:19;;;;;;;4.75;2.50;;;2.80;68.70;;;;;;5054960;28;20037;-75
2024/01/05 01:05:45;;;;;;;3.60;2.25;;;2.80;68.90;;;;;;5037633;28;20155;-75
2024/01/05 01:08:12;;;;;;;8.50;3.10;;;2.80;69.20;;;;;;5054677;28;20044;-74
2024/01/05 01:10:39;;;;;;;4.80;2.50;;;2.70;68.60;;;;;;5054134;28;20149;-75
2024/01/05 01:13:05;;;;;;;4.97;2.67;;;2.80;69.30;;;;;;5054774;28;20482;-75
2024/01/05 01:15:31;;;;;;;7.18;2.08;;;2.70;69.20;;;;;;5055633;28;20036;-74
2024/01/05 01:17:58;;;;;;;3.97;2.47;;;2.70;69.20;;;;;;5055712;28;20037;-75
2024/01/05 01:20:24;;;;;;;;;;;2.70;69.00;;;;;;5037815;28;20447;-75
2024/01/05 01:22:50;;;;;;;9.77;3.00;;;2.60;68.60;;;;;;5054605;28;20008;-74
2024/01/05 01:25:16;;;;;;;6.47;4.38;;;2.60;68.50;;;;;;5037675;28;20032;-74
2024/01/05 01:27:43;;;;;;;6.60;4.68;;;2.50;68.50;;;;;;5055793;28;20087;-74
2024/01/05 01:30:09;;;;;;;4.85;3.28;;;2.60;68.70;;;;;;5036879;28;20025;-75
2024/01/05 01:32:36;;;;;;;6.15;3.90;;;2.50;68.20;;;;;;5054133;28;20039;-75
2024/01/05 01:35:04;;;;;;;5.10;2.58;;;2.50;68.90;;;;;;5055540;28;20033;-75
2024/01/05 01:37:30;;;;;;;3.25;1.83;;;2.50;68.90;;;;;;5055719;28;20021;-75
2024/01/05 01:39:56;;;;;;;5.95;2.78;;;2.50;69.10;;;;;;5055333;28;20091;-74
2024/01/05 01:42:22;;;;;;;5.82;2.97;;;2.50;69.20;;;;;;5037042;28;20397;-74
2024/01/05 01:44:48;;;;;;;6.82;4.60;;;2.50;69.40;;;;;;5054087;28;20040;-75
2024/01/05 01:47:14;;;;;;;4.25;2.35;;;2.50;69.70;;;;;;5053879;28;20551;-75
2024/01/05 01:49:40;;;;;;;6.65;3.88;;;2.50;69.80;;;;;;5037520;28;20146;-74
2024/01/05 01:52:08;;;;;;;6.10;2.70;;;2.50;70.10;;;;;;5053389;28;20556;-75
2024/01/05 01:54:35;;;;;;;3.08;2.65;;;2.50;70.00;;;;;;5053996;28;20048;-75
2024/01/05 01:57:03;;;;;;;4.15;2.88;;;2.50;69.30;;;;;;5053693;28;20055;-75
2024/01/05 01:59:30;;;;;;;4.35;2.28;;;2.50;69.60;;;;;;5037187;28;20029;-75
2024/01/05 02:01:57;;;;;;;4.38;1.88;;;2.50;69.80;;;;;;5054636;28;20037;-74
2024/01/05 02:04:26;;;;;;;4.78;2.80;;;2.40;69.70;;;;;;5052414;28;20465;-74
2024/01/05 02:06:52;;;;;;;9.77;3.50;;;2.40;69.90;;;;;;5053422;28;20087;-75
2024/01/05 02:09:18;;;;;;;;;;;2.40;70.30;;;;;;5054027;28;20048;-74
2024/01/05 02:11:44;;;;;;;4.40;2.22;;;2.40;70.20;;;;;;5053844;28;19999;-74
2024/01/05 02:14:11;;;;;;;4.40;2.72;;;2.40;70.30;;;;;;5053674;28;20025;-75
2024/01/05 02:16:37;;;;;;;6.05;2.63;;;2.30;70.20;;;;;;5054790;28;20083;-75
2024/01/05 02:19:03;;;;;;;5.22;2.92;;;2.30;70.40;;;;;;5053312;28;20029;-74
2024/01/05 02:21:50;;;;;;;8.10;3.50;;;2.30;70.50;;;;;;5052708;28;20056;-74
2024/01/05 02:24:17;;;;;;;5.57;2.83;;;2.30;70.10;;;;;;5036602;28;20086;-74
2024/01/05 02:26:43;;;;;;;;;;;2.30;70.00;;;;;;5036906;28;20406;-74
2024/01/05 02:29:09;;;;;;;5.03;2.45;;;2.30;70.10;;;;;;5053209;28;20003;-75
2024/01/05 02:31:35;;;;;;;4.22;2.15;;;2.30;70.10;;;;;;5052687;28;20445;-74
2024/01/05 02:34:01;;;;;;;3.22;2.00;;;2.30;70.30;;;;;;5036480;28;20394;-74
2024/01/05 02:36:27;;;;;;;4.50;1.75;;;2.30;70.40;;;;;;5053019;28;20481;-75
2024/01/05 02:38:53;;;;;;;4.93;2.95;;;2.30;69.90;;;;;;5036408;28;20036;-75
2024/01/05 02:41:19;;;;;;;3.90;2.45;;;2.30;70.90;;;;;;5052355;28;20037;-74
2024/01/05 02:43:45;;;;;;;2.35;1.48;;;2.30;71.20;;;;;;5053202;28;20458;-74
2024/01/05 02:46:11;;;;;;;3.30;1.98;;;2.30;71.00;;;;;;5052472;28;20078;-74
2024/01/05 02:48:37;;;;;;;1.95;1.25;;;2.30;70.90;;;;;;5054129;28;20025;-74
2024/01/05 02:51:03;;;;;;;1.70;1.15;;;2.30;71.10;;;;;;5053301;28;20170;-75
2024/01/05 02:53:29;;;;;;;3.08;2.00;;;2.30;71.10;;;;;;5052836;28;20398;-74
2024/01/05 02:55:55;;;;;;;5.70;2.40;;;2.30;71.60;;;;;;5053948;28;20041;-74
2024/01/05 02:58:21;;;;;;;5.05;1.88;;;2.20;71.60;;;;;;5053789;28;20179;-74
2024/01/05 03:00:47;;;;;;;3.08;1.75;;;2.20;71.40;;;;;;5052030;28;20490;-74
2024/01/05 03:03:14;;;;;;;2.78;1.33;;;2.30;71.40;;;;;;5053724;28;20036;-75
2024/01/05 03:05:40;;;;;;;4.63;2.38;;;2.40;71.00;;;;;;5052181;28;20044;-75
2024/01/05 03:08:06;;;;;;;4.45;1.98;;;2.30;71.20;;;;;;5052375;28;20029;-75
2024/01/05 03:10:32;;;;;;;;;;;2.30;71.20;;;;;;5052272;28;20065;-74
2024/01/05 03:12:58;;;;;;;3.05;1.88;;;2.30;71.50;;;;;;5052427;28;19966;-75
2024/01/05 03:15:24;;;;;;;11.70;4.18;;;2.20;71.20;;;;;;5051785;28;20085;-75
2024/01/05 03:17:50;;;;;;;3.35;1.45;;;2.20;71.10;;;;;;5052509;28;20441;-75
2024/01/05 03:20:17;;;;;;;;;;;2.20;70.90;;;;;;5052171;28;20087;-75
2024/01/05 03:22:43;;;;;;;2.85;2.28;;;2.20;70.70;;;;;;5035646;28;19952;-74
2024/01/05 03:25:09;;;;;;;5.47;3.45;;;2.30;70.70;;;;;;5053299;28;20052;-75
2024/01/05 03:27:36;;;;;;;5.28;3.40;;;2.30;70.90;;;;;;5053706;28;20033;-74
2024/01/05 03:30:02;;;;;;;3.75;2.65;;;2.30;70.80;;;;;;5051807;28;20537;-74
2024/01/05 03:32:28;;;;;;;;;;;2.30;70.60;;;;;;5052186;28;20448;-74
2024/01/05 03:34:54;;;;;;;7.40;3.08;;;2.30;70.60;;;;;;5053333;28;19912;-74
2024/01/05 03:37:20;;;;;;;5.78;1.77;;;2.20;71.60;;;;;;5053447;28;20043;-74
2024/01/05 03:39:46;;;;;;;4.50;2.65;;;2.30;71.00;;;;;;5051994;28;20283;-75
2024/01/05 03:42:12;;;;;;;3.20;1.67;;;2.20;71.10;;;;;;5051195;28;20524;-74
2024/01/05 03:44:38;;;;;;;4.38;2.15;;;2.30;71.30;;;;;;5053143;28;20062;-74
2024/01/05 03:47:04;;;;;;;2.30;1.38;;;2.30;71.20;;;;;;5053257;28;20060;-75
2024/01/05 03:49:30;;;;;;;2.42;1.13;;;2.20;71.30;;;;;;5053110;28;20017;-75
2024/01/05 03:51:56;;;;;;;1.13;0.73;;;2.10;71.40;;;;;;5051015;28;20052;-75
2024/01/05 03:54:22;;;;;;;2.75;1.98;;;2.20;71.30;;;;;;5051527;28;20025;-75
2024/01/05 03:56:48;;;;;;;0.77;0.52;;;2.20;71.30;;;;;;5034867;28;20520;-75
2024/01/05 03:59:14;;;;;;;4.25;1.98;;;2.20;71.50;;;;;;5051563;28;20029;-75
2024/01/05 04:01:59;;;;;;;4.53;1.15;;;2.20;72.10;;;;;;5052266;28;20133;-75
2024/01/05 04:04:25;;;;;;;1.13;0.75;;;2.30;72.20;;;;;;5034857;28;20025;-75
2024/01/05 04:06:51;;;;;;;1.70;1.00;;;2.30;72.10;;;;;;5052174;28;20072;-75
2024/01/05 04:09:17;;;;;;;2.25;1.10;;;2.30;72.00;;;;;;5052553;28;20029;-74
2024/01/05 04:11:44;;;;;;;0.50;0.43;;;2.20;72.00;;;;;;5050742;28;20037;-74
2024/01/05 04:14:10;;;;;;;2.30;1.30;;;2.20;72.10;;;;;;5052673;28;20094;-74
2024/01/05 04:16:36;;;;;;;4.80;2.75;;;2.30;72.10;;;;;;5051155;28;20033;-74
2024/01/05 04:19:02;;;;;;;6.15;3.72;;;2.30;72.10;;;;;;5051042;28;20048;-74
2024/01/05 04:21:28;;;;;;;;;;;2.30;71.50;;;;;;5051101;28;20036;-75
2024/01/05 04:23:56;;;;;;;4.95;2.67;;;2.30;71.90;;;;;;5051388;28;19912;-75
2024/01/05 04:26:22;;;;;;;3.47;2.47;;;2.20;71.70;;;;;;5051151;28;20078;-74
2024/01/05 04:28:48;;;;;;;;;;;2.20;72.10;;;;;;5052237;28;20037;-75
2024/01/05 04:31:15;;;;;;;3.25;2.40;;;2.20;72.00;;;;;;5051644;28;19974;-74
2024/01/05 04:33:41;;;;;;;7.07;3.58;;;2.30;72.10;;;;;;5034583;28;20025;-74
2024/01/05 04:36:07;;;;;;;6.35;4.18;;;2.20;71.90;;;;;;5050796;28;20044;-74
2024/01/05 04:38:34;;;;;;;6.10;2.72;;;2.20;71.30;;;;;;5034873;28;20151;-75
2024/01/05 04:41:01;;;;;;;4.88;3.30;;;2.20;72.20;;;;;;5050452;28;20037;-75
2024/01/05 04:43:28;;;;;;;4.32;2.17;;;2.20;72.00;;;;;;5050984;28;20028;-75
2024/01/05 04:45:54;;;;;;;5.63;3.63;;;2.20;72.10;;;;;;5050770;28;20094;-75
2024/01/05 04:48:20;;;;;;;4.65;2.08;;;2.20;72.00;;;;;;5034241;28;20029;-75
2024/01/05 04:50:46;;;;;;;3.80;2.20;;;2.20;71.90;;;;;;5051704;28;20045;-75
2024/01/05 04:53:12;;;;;;;;;;;2.20;71.50;;;;;;5052671;28;20033;-75
2024/01/05 04:55:38;;;;;;;5.88;2.38;;;2.20;71.50;;;;;;5052080;28;19943;-75
2024/01/05 04:58:04;;;;;;;4.28;2.05;;;2.10;71.20;;;;;;5051781;28;20033;-72
2024/01/05 05:00:30;;;;;;;2.90;2.05;;;2.10;71.40;;;;;;5033411;28;20045;-75
2024/01/05 05:02:56;;;;;;;6.40;2.08;;;2.10;71.40;;;;;;5034091;28;20079;-74
2024/01/05 05:05:22;;;;;;;2.10;1.30;;;2.10;71.20;;;;;;5051981;28;20445;-75
2024/01/05 05:07:48;;;;;;;2.50;1.88;;;2.10;71.00;;;;;;5051916;28;20053;-74
2024/01/05 05:10:15;;;;;;;5.13;2.33;;;2.10;70.70;;;;;;5033435;28;20221;-74
2024/01/05 05:12:40;;;;;;;;;;;2.10;70.90;;;;;;5051337;28;20033;-75
2024/01/05 05:15:08;;;;;;;1.10;0.85;;;2.10;70.90;;;;;;5052129;28;20553;-75
2024/01/05 05:17:34;;;;;;;3.28;1.90;;;2.10;70.60;;;;;;5052360;28;20352;-75
2024/01/05 05:20:00;;;;;;;3.70;1.77;;;2.10;70.60;;;;;;5050489;28;20033;-75
2024/01/05 05:22:26;;;;;;;5.75;3.03;;;2.10;70.60;;;;;;5051586;28;20041;-75
2024/01/05 05:24:52;;;;;;;3.40;0.68;;;2.10;70.30;;;;;;5050511;28;20051;-75
2024/01/05 05:27:18;;;;;;;4.57;1.85;;;2.00;70.10;;;;;;5052015;28;20116;-75
2024/01/05 05:29:44;;;;;;;;;;;2.10;70.10;;;;;;5051020;28;20021;-75
2024/01/05 05:32:11;;;;;;;0.85;0.80;;;2.10;70.00;;;;;;5050016;28;20499;-75
2024/01/05 05:34:37;;;;;;;2.90;1.73;;;2.10;69.80;;;;;;5050710;28;20424;-75
2024/01/05 05:37:03;;;;;;;3.20;1.75;;;2.00;69.70;;;;;;5047573;28;20406;-75
2024/01/05 05:39:29;;;;;;;;;;;1.90;69.00;;;;;;5052818;28;20478;-75
2024/01/05 05:41:55;;;;;;;1.27;0.52;;;1.90;69.70;;;;;;5053595;28;20007;-75
2024/01/05 05:44:21;;;;;;;1.65;1.27;;;1.90;69.60;;;;;;5045968;28;20051;-75
2024/01/05 05:46:47;;;;;;;3.17;1.67;;;1.90;69.70;;;;;;5054874;28;20048;-75
2024/01/05 05:49:13;;;;;;;3.28;1.70;;;1.90;69.80;;;;;;5053761;28;20465;-75
2024/01/05 05:51:39;;;;;;;3.67;2.10;;;1.90;69.80;;;;;;5036295;28;20041;-74
2024/01/05 05:54:06;;;;;;;2.67;1.58;;;2.00;69.70;;;;;;5054018;28;20382;-75
2024/01/05 05:56:32;;;;;;;;;;;2.00;69.00;;;;;;5054199;28;20456;-75
2024/01/05 05:58:58;;;;;;;2.58;0.88;;;2.00;69.40;;;;;;5053966;28;19927;-75
2024/01/05 06:01:24;;;;;;;6.97;2.08;;;2.00;69.40;;;;;;5054203;28;20045;-75
2024/01/05 06:03:50;;;;;;;6.10;2.88;;;2.10;69.40;;;;;;5054921;28;20064;-75
2024/01/05 06:06:21;;;;;;;;;;;2.10;69.20;;;;;;5053740;28;20088;-75
2024/01/05 06:08:48;;;;;;;4.55;3.55;;;2.10;69.10;;;;;;5053675;28;19919;-75
2024/01/05 06:11:33;;;;;;;4.97;1.60;;;2.10;69.30;;;;;;5052595;28;20040;-74
2024/01/05 06:13:59;;;;;;;3.83;2.28;;;2.10;69.40;;;;;;5053347;28;20083;-75
2024/01/05 06:16:25;;;;;;;;;;;2.10;69.00;;;;;;5037276;28;20271;-74
2024/01/05 06:18:51;;;;;;;4.07;1.77;;;2.10;69.60;;;;;;5036276;28;19919;-75
2024/01/05 06:21:17;;;;;;;4.55;1.40;;;2.10;69.80;;;;;;5035681;28;20044;-75
2024/01/05 06:23:43;;;;;;;3.40;1.58;;;2.10;70.10;;;;;;5054484;28;20043;-75
2024/01/05 06:26:09;;;;;;;2.10;1.08;;;2.20;70.40;;;;;;5054224;28;20029;-75
2024/01/05 06:28:36;;;;;;;2.45;1.63;;;2.20;70.50;;;;;;5053403;28;20044;-75
2024/01/05 06:31:02;;;;;;;2.03;1.17;;;2.30;70.60;;;;;;5053275;28;20070;-75
2024/01/05 06:33:28;;;;;;;2.50;1.30;;;2.30;70.40;;;;;;5053239;28;20059;-74
2024/01/05 06:35:54;;;;;;;3.30;1.85;;;2.40;70.40;;;;;;5040558;28;20036;-75
2024/01/05 06:38:20;;;;;;;13.20;2.17;;;2.40;70.40;;;;;;5038921;28;20372;-75
2024/01/05 06:40:46;;;;;;;3.63;2.13;;;2.40;70.50;;;;;;5047131;28;20045;-75
2024/01/05 06:43:12;;;;;;;3.08;0.68;;;2.50;70.90;;;;;;5034202;28;20043;-74
2024/01/05 06:45:38;;;;;;;1.60;0.93;;;2.50;71.10;;;;;;5032617;28;20112;-75
2024/01/05 06:48:05;;;;;;;;;;;2.50;71.00;;;;;;5033671;28;20068;-75
2024/01/05 06:50:31;;;;;;;3.08;1.52;;;2.60;70.60;;;;;;5032771;28;20370;-74
2024/01/05 06:52:57;;;;;;;4.35;1.42;;;2.70;71.00;;;;;;5032305;28;20053;-75
2024/01/05 06:55:23;;;;;;;3.50;2.33;;;2.70;71.10;;;;;;5033608;28;20041;-75
2024/01/05 06:57:49;;;;;;;2.78;1.83;;;2.80;71.10;;;;;;5033819;28;20088;-74
2024/01/05 07:00:16;;;;;;;2.35;1.30;;;2.90;71.00;;;;;;5033562;28;20034;-75
2024/01/05 07:02:42;;;;;;;7.35;3.80;;;2.90;70.30;;;;;;5052537;28;20025;-75
2024/01/05 07:05:08;;;;;;;;;;;3.00;70.80;;;;;;5052707;28;20322;-74
2024/01/05 07:07:34;;;;;;;8.18;4.55;;;3.10;70.80;;;;;;5050737;28;19959;-74
2024/01/05 07:10:01;;;;;;;14.50;5.70;;;3.10;71.00;;;;;;5046957;28;20033;-75
2024/01/05 07:12:45;;;;;;;7.32;3.08;;;3.00;71.10;;;;;;5051669;28;20048;-75
2024/01/05 07:15:11;;;;;;;24.27;5.70;;;3.10;71.30;;;;;;5053494;28;20039;-75
2024/01/05 07:17:37;;;;;;;3.83;2.72;;;3.10;71.20;;;;;;5052831;28;20394;-75
2024/01/05 07:20:04;;;;;;;4.15;2.10;;;3.10;71.00;;;;;;5052193;28;20086;-75
2024/01/05 07:22:30;;;;;;;6.18;3.47;;;3.10;70.70;;;;;;5032173;28;20037;-75
2024/01/05 07:24:57;;;;;;;11.20;5.72;;;3.20;70.50;;;;;;5033380;28;20040;-74
2024/01/05 07:27:23;;;;;;;5.38;3.45;;;3.30;70.20;;;;;;5032152;28;20041;-75
2024/01/05 07:29:49;;;;;;;5.95;3.63;;;3.40;69.90;;;;;;5032036;28;20029;-75
2024/01/05 07:32:15;;;;;;;3.88;3.10;;;3.50;70.00;;;;;;5049937;28;20045;-75
2024/01/05 07:34:41;;;;;;;4.78;2.92;;;3.60;69.60;;;;;;5035268;28;20032;-75
2024/01/05 07:37:07;;;;;;;6.35;4.25;;;3.60;69.60;;;;;;5051576;28;20041;-75
2024/01/05 07:39:33;;;;;;;8.50;3.75;;;3.70;69.60;;;;;;5053384;28;20030;-75
2024/01/05 07:42:02;;;;;;;4.25;2.65;;;3.70;70.40;;;;;;5067960;28;20154;-75
2024/01/05 07:44:28;;;;;;;7.28;4.80;;;3.70;69.50;;;;;;5051868;28;20036;-74
2024/01/05 07:46:54;;;;;;;9.25;5.38;;;3.80;69.40;;;;;;5034919;28;20121;-75
2024/01/05 07:49:20;;;;;;;5.63;2.88;;;3.90;69.30;;;;;;5052903;28;20402;-74
2024/01/05 07:51:46;;;;;;;7.38;3.00;;;3.90;70.20;;;;;;5030409;28;20044;-75
2024/01/05 07:54:12;;;;;;;5.82;2.72;;;3.90;69.30;;;;;;5048260;28;20025;-74
2024/01/05 07:56:39;;;;;;;5.30;3.00;;;3.90;69.30;;;;;;5048307;28;20507;-75
2024/01/05 07:59:05;;;;;;;6.20;3.40;;;4.00;69.30;;;;;;5026249;28;20033;-75
2024/01/05 08:01:31;;;;;;;4.40;2.35;;;4.00;69.20;;;;;;5050606;28;20041;-75
2024/01/05 08:03:57;;;;;;;8.30;2.65;;;4.10;69.20;;;;;;5050674;28;20094;-75
2024/01/05 08:06:23;;;;;;;4.78;2.88;;;4.10;69.00;;;;;;5052557;28;20091;-75
2024/01/05 08:08:50;;;;;;;5.63;2.22;;;4.20;69.20;;;;;;5052538;28;20086;-75
2024/01/05 08:11:17;;;;;;;4.10;2.58;;;4.30;69.20;;;;;;5051885;28;20044;-75
2024/01/05 08:16:30;;;;;;;11.80;4.90;;;4.50;68.90;;;;;;5052290;28;20175;-74
2024/01/05 08:18:56;;;;;;;12.43;5.38;;;4.60;68.70;;;;;;5051220;28;20032;-75
2024/01/05 08:21:22;;;;;;;7.82;5.63;;;4.70;68.80;;;;;;5052015;28;20120;-75
2024/01/05 08:23:49;;;;;;;5.68;3.42;;;4.70;68.90;;;;;;5052597;28;20025;-75
2024/01/05 08:26:33;;;;;;;32.17;19.17;;;4.80;68.80;;;;;;5051050;28;20402;-75
2024/01/05 08:28:59;;;;;;;27.70;14.15;;;4.80;68.90;;;;;;5042680;28;20048;-75
2024/01/05 08:31:25;;;;;;;11.80;5.57;;;4.80;68.60;;;;;;5049408;28;20516;-75
2024/01/05 08:33:51;;;;;;;9.23;5.32;;;4.80;68.60;;;;;;5046987;28;20025;-75
2024/01/05 08:36:18;;;;;;;19.30;5.57;;;4.90;68.50;;;;;;5027028;28;20041;-75
2024/01/05 08:38:47;;;;;;;20.15;14.00;;;5.00;68.20;;;;;;5050127;28;20079;-75
2024/01/05 08:41:13;;;;;;;23.15;12.85;;;5.00;68.10;;;;;;5050800;28;20367;-74
2024/01/05 08:43:43;;;;;;;19.75;11.73;;;5.00;68.20;;;;;;5050406;28;20063;-75
2024/01/05 08:46:10;;;;;;;18.27;10.02;;;5.10;68.00;;;;;;5043028;28;20127;-75
2024/01/05 08:48:39;;;;;;;20.15;13.25;;;5.30;67.50;;;;;;5036608;28;20034;-75
2024/01/05 08:51:05;;;;;;;23.02;11.57;;;5.40;67.20;;;;;;5035763;28;20041;-75
2024/01/05 08:53:31;;;;;;;20.45;12.63;;;5.60;67.80;;;;;;5030004;28;20021;-74
2024/01/05 08:55:57;;;;;;;22.88;13.85;;;5.70;66.60;;;;;;5031143;28;20040;-75
2024/01/05 08:58:23;;;;;;;17.40;10.20;;;5.90;66.50;;;;;;5051967;28;20040;-75
2024/01/05 09:00:49;;;;;;;12.15;7.32;;;6.00;66.40;;;;;;5051729;28;20037;-75
2024/01/05 09:03:15;;;;;;;9.93;3.63;;;6.10;66.50;;;;;;5052331;28;20474;-75
2024/01/05 09:05:41;;;;;;;6.25;3.83;;;6.30;66.30;;;;;;5049960;28;20531;-75
2024/01/05 09:08:07;;;;;;;4.32;2.88;;;6.40;66.20;;;;;;5033760;28;20482;-73
2024/01/05 09:10:33;;;;;;;4.93;2.90;;;6.40;65.90;;;;;;5049569;28;20086;-73
2024/01/05 09:13:00;;;;;;;3.95;2.53;;;6.50;65.80;;;;;;5051653;28;20389;-73
2024/01/05 09:15:26;;;;;;;4.68;3.17;;;6.60;65.70;;;;;;5055398;28;20041;-73
2024/01/05 09:17:52;;;;;;;6.28;2.55;;;6.60;64.80;;;;;;5055720;28;20064;-73
2024/01/05 09:20:18;;;;;;;5.07;3.35;;;6.70;65.40;;;;;;5035087;28;20029;-73
2024/01/05 09:22:45;;;;;;;14.02;5.57;;;6.70;65.20;;;;;;5029116;28;20079;-74
2024/01/05 09:25:11;;;;;;;12.32;5.85;;;6.80;65.00;;;;;;5048931;28;20478;-75
2024/01/05 09:27:37;;;;;;;4.80;1.95;;;6.80;64.70;;;;;;5018215;28;20455;-75
2024/01/05 09:30:04;;;;;;;16.35;6.07;;;6.90;64.60;;;;;;5033406;28;20065;-75
2024/01/05 09:32:30;;;;;;;10.30;5.07;;;6.90;64.50;;;;;;5035764;28;20096;-75
2024/01/05 09:34:56;;;;;;;7.05;4.28;;;7.00;64.90;;;;;;5035255;28;20040;-74
2024/01/05 09:37:22;;;;;;;13.02;4.68;;;7.00;64.70;;;;;;5053350;28;20037;-73
2024/01/05 09:39:48;;;;;;;5.88;3.13;;;7.10;64.70;;;;;;5053570;28;20074;-73
2024/01/05 09:42:14;;;;;;;5.35;2.60;;;7.20;64.40;;;;;;5054946;28;20043;-73
2024/01/05 09:44:42;;;;;;;2.65;1.73;;;7.30;64.20;;;;;;5053857;28;20033;-75
2024/01/05 09:47:08;;;;;;;3.40;2.65;;;7.40;63.80;;;;;;5037222;28;20047;-72
2024/01/05 09:49:44;;;;;;;;;;;7.50;62.90;;;;;;5055735;28;20024;-73
2024/01/05 09:52:12;;;;;;;7.38;3.40;;;7.70;62.90;;;;;;5036968;28;20365;-75
2024/01/05 09:54:38;;;;;;;2.95;1.08;;;7.80;62.80;;;;;;5033802;28;20030;-75
2024/01/05 09:57:06;;;;;;;5.78;2.05;;;8.00;62.70;;;;;;5041183;28;20036;-75
2024/01/05 09:59:34;;;;;;;5.90;4.80;;;8.10;62.00;;;;;;5027843;28;20034;-75
2024/01/05 10:02:07;;;;;;;10.85;5.85;;;8.10;62.00;;;;;;5035567;28;20482;-75
2024/01/05 10:04:33;;;;;;;6.70;4.38;;;8.10;62.40;;;;;;5053901;28;20028;-75
2024/01/05 10:07:03;;;;;;;8.52;5.30;;;8.10;62.50;;;;;;5053123;28;20040;-73
2024/01/05 10:09:31;;;;;;;7.43;2.83;;;8.10;61.80;;;;;;5053198;28;20621;-73
2024/01/05 10:11:58;;;;;;;2.67;1.85;;;8.00;62.60;;;;;;5035975;28;20065;-73
2024/01/05 10:14:42;;;;;;;9.00;3.70;;;8.10;62.80;;;;;;5030836;28;20112;-73
2024/01/05 10:17:10;;;;;;;4.97;2.85;;;8.30;62.70;;;;;;5049454;28;20090;-74
2024/01/05 10:19:37;;;;;;;8.80;6.35;;;8.50;62.10;;;;;;5053431;28;20488;-75
2024/01/05 10:22:21;;;;;;;8.90;3.83;;;8.60;61.80;;;;;;5048065;28;20411;-75
2024/01/05 10:24:47;;;;;;;9.90;5.05;;;8.80;61.60;;;;;;5034035;28;20403;-72
2024/01/05 10:27:14;;;;;;;15.32;3.50;;;8.80;61.60;;;;;;5039027;28;20037;-73
2024/01/05 10:29:43;;;;;;;5.90;3.33;;;8.90;60.70;;;;;;5048231;28;20061;-75
2024/01/05 10:32:29;;;;;;;7.75;4.35;;;9.20;60.50;;;;;;5032490;28;20508;-75
2024/01/05 10:34:55;;;;;;;2.72;1.52;;;9.80;58.90;;;;;;5047916;28;20028;-75
2024/01/05 10:37:21;;;;;;;3.35;1.67;;;10.00;58.50;;;;;;5049633;28;20079;-75
2024/01/05 10:39:51;;;;;;;4.00;1.40;;;9.90;58.40;;;;;;5035851;28;20037;-73
2024/01/05 10:42:36;;;;;;;2.22;1.58;;;9.80;58.50;;;;;;5050152;28;20079;-73
2024/01/05 10:45:02;;;;;;;6.25;4.65;;;9.70;58.70;;;;;;5034706;28;20470;-75
2024/01/05 10:50:13;;;;;;;14.68;4.47;;;9.40;58.90;;;;;;5042620;28;20679;-75
2024/01/05 10:52:42;;;;;;;4.07;1.85;;;9.30;59.80;;;;;;5033820;28;20650;-75
2024/01/05 10:55:09;;;;;;;3.20;1.95;;;9.20;59.30;;;;;;5046539;28;20379;-75
2024/01/05 10:57:36;;;;;;;4.82;2.47;;;9.10;59.90;;;;;;5050787;28;20032;-73
2024/01/05 11:00:05;;;;;;;3.95;2.65;;;9.00;59.70;;;;;;5050590;28;20549;-73
2024/01/05 11:02:46;;;;;;;3.88;1.40;;;9.00;59.70;;;;;;5048556;28;20057;-73
2024/01/05 11:05:13;;;;;;;1.90;1.10;;;9.00;60.30;;;;;;5031401;28;20036;-75
2024/01/05 11:07:42;;;;;;;4.10;2.70;;;9.10;60.50;;;;;;5032325;28;20077;-75
2024/01/05 11:10:45;;;;;;;4.40;2.63;;;9.10;60.70;;;;;;5032498;28;20117;-75
2024/01/05 11:13:56;;;;;;;2.88;1.27;;;9.20;60.70;;;;;;5041017;28;20048;-75
2024/01/05 11:16:59;;;;;;;3.15;1.83;;;9.40;60.20;;;;;;5042504;28;20040;-75
2024/01/05 11:20:21;;;;;;;3.63;2.20;;;9.60;59.90;;;;;;5048864;28;20044;-75
2024/01/05 11:22:49;;;;;;;2.22;1.40;;;9.70;59.40;;;;;;5051443;28;20490;-75
2024/01/05 11:25:16;;;;;;;2.33;1.45;;;9.90;58.20;;;;;;5045815;28;20500;-75
2024/01/05 11:28:02;;;;;;;5.90;3.58;;;10.20;58.40;;;;;;5030606;28;20090;-75
2024/01/05 11:30:46;;;;;;;7.03;2.83;;;10.50;58.10;;;;;;5050968;28;20092;-75
2024/01/05 11:33:49;;;;;;;9.80;3.42;;;10.80;57.30;;;;;;5052328;28;20037;-75
2024/01/05 11:36:54;;;;;;;2.80;2.38;;;11.10;56.80;;;;;;5016268;28;20037;-73
2024/01/05 11:39:57;;;;;;;5.88;3.30;;;11.80;54.90;;;;;;5031487;28;20041;-75
2024/01/05 11:42:44;;;;;;;4.25;1.70;;;12.10;54.30;;;;;;5046091;28;20124;-75
2024/01/05 11:45:11;;;;;;;4.85;2.67;;;12.50;53.20;;;;;;5045681;28;21518;-73
2024/01/05 11:47:56;;;;;;;5.20;2.42;;;12.60;52.50;;;;;;5016099;28;20486;-73
2024/01/05 11:50:41;;;;;;;5.70;3.20;;;12.80;52.30;;;;;;5021555;28;20036;-76
2024/01/05 11:53:28;;;;;;;2.22;1.98;;;13.80;50.20;;;;;;5027933;28;20037;-73
2024/01/05 11:58:57;;;;;;;2.38;1.88;;;13.80;48.10;;;;;;5036995;28;20207;-73
2024/01/05 12:01:24;;;;;;;2.60;1.35;;;13.60;49.40;;;;;;5042969;28;20090;-73
2024/01/05 12:03:53;;;;;;;2.72;1.65;;;13.90;48.80;;;;;;5051686;28;20033;-73
2024/01/05 12:06:20;;;;;;;2.22;1.38;;;14.20;47.10;;;;;;5033411;28;20128;-73
2024/01/05 12:08:46;;;;;;;3.85;1.88;;;14.30;47.30;;;;;;5050639;28;20021;-74
2024/01/05 12:11:13;;;;;;;2.05;0.85;;;14.50;46.60;;;;;;5026256;28;21045;-73
2024/01/05 12:13:39;;;;;;;1.90;1.20;;;14.50;46.60;;;;;;5032894;28;20059;-73
2024/01/05 12:16:08;;;;;;;4.45;1.60;;;14.40;46.80;;;;;;5031439;28;20138;-73
2024/01/05 12:18:45;;;;;;;2.17;1.25;;;14.40;47.00;;;;;;5036582;28;20029;-73
2024/01/05 12:21:13;;;;;;;;;;;14.50;46.30;;;;;;5049918;28;20047;-73
2024/01/05 12:23:40;;;;;;;3.53;1.90;;;14.40;47.00;;;;;;5044865;28;19917;-73
2024/01/05 12:26:08;;;;;;;0.85;0.68;;;14.30;46.30;;;;;;5045131;28;20029;-73
2024/01/05 12:28:47;;;;;;;3.67;2.30;;;14.20;47.00;;;;;;5050989;28;20061;-73
2024/01/05 12:31:14;;;;;;;3.95;1.75;;;14.10;47.40;;;;;;5046928;28;20148;-73
2024/01/05 12:33:40;;;;;;;1.88;1.40;;;14.00;46.70;;;;;;5034336;28;20380;-74
2024/01/05 12:36:14;;;;;;;5.07;4.03;;;13.90;47.10;;;;;;5049152;28;20045;-73
2024/01/05 12:38:41;;;;;;;6.60;2.70;;;13.90;47.00;;;;;;5030015;28;20037;-73
2024/01/05 12:41:25;;;;;;;2.88;1.67;;;13.90;47.50;;;;;;5040748;28;20037;-73
2024/01/05 12:43:51;;;;;;;4.68;3.10;;;13.80;47.80;;;;;;5051587;28;20036;-73
2024/01/05 12:46:55;;;;;;;2.53;2.30;;;13.70;47.80;;;;;;5049470;28;20033;-73
2024/01/05 12:49:23;;;;;;;3.63;3.08;;;13.70;48.10;;;;;;5043365;28;20402;-73
2024/01/05 12:51:50;;;;;;;1.10;1.00;;;13.60;48.20;;;;;;5035131;28;20099;-74
2024/01/05 12:54:17;;;;;;;2.13;1.70;;;13.50;48.50;;;;;;5047302;28;20043;-73
2024/01/05 12:57:02;;;;;;;3.10;1.85;;;13.40;48.60;;;;;;5053291;28;20057;-73
2024/01/05 12:59:30;;;;;;;4.78;2.05;;;13.30;48.80;;;;;;5056067;28;20104;-73
2024/01/05 13:02:15;;;;;;;7.43;2.92;;;13.10;49.10;;;;;;5032517;28;20041;-73
2024/01/05 13:04:41;;;;;;;3.00;1.52;;;13.10;49.50;;;;;;5034814;28;20036;-73
2024/01/05 13:07:09;;;;;;;7.43;2.60;;;13.10;49.10;;;;;;5031825;28;20380;-72
2024/01/05 13:09:35;;;;;;;7.18;2.33;;;12.90;48.60;;;;;;5034062;28;20029;-73
2024/01/05 13:12:02;;;;;;;1.73;1.25;;;12.80;49.00;;;;;;5033607;28;20042;-73
2024/01/05 13:14:28;;;;;;;5.72;3.55;;;12.90;49.20;;;;;;5016583;28;20061;-73
2024/01/05 13:16:54;;;;;;;4.63;2.60;;;13.00;49.20;;;;;;5030198;28;20029;-73
2024/01/05 13:19:20;;;;;;;4.18;2.50;;;13.10;49.00;;;;;;5035465;28;20030;-73